Porcupine Plain, Canada
Current Conditions -  °F | °C
As of 12:00 PM on Thursday 23 Oct 2014 (Local Time) from CYBU Reporting Station
Overcast Overcast  
Wind Chill: 44°   Ceiling: 700
Heat Index: 48°   Visibility: 9mi
Dew Point: 45°   Wind: 10mph
Humidity: 87%   Direction: 100°E
Pressure: 29.66"   Gusts: NA
Location:  52.6°N, 103.25°W
Report Text: CYBU 231800Z AUTO 10009KT 9SM OVC007 09/07 A2966 RMK PRESFR SLP056
Loading
Personal Weather Stations






























Interactive Weather Map
Tropical Storm Tracking
New forecast layout! Learn more

10-Day Weather Forecast

Advertisements
Track Severe Weather on mobile